createdAt,value
2019-05-02T00:02:32.756Z,36.40
2019-05-02T00:05:04.823Z,37.77
2019-05-02T00:07:36.232Z,36.07
2019-05-02T00:10:09.989Z,35.57
2019-05-02T00:12:41.388Z,37.37
2019-05-02T00:15:15.471Z,36.63
2019-05-02T00:17:46.797Z,36.13
2019-05-02T00:20:21.259Z,34.93
2019-05-02T00:22:53.446Z,34.57
2019-05-02T00:25:24.793Z,35.37
2019-05-02T00:27:56.065Z,34.17
2019-05-02T00:30:29.935Z,34.80
2019-05-02T00:33:00.412Z,34.37
2019-05-02T00:35:31.703Z,34.87
2019-05-02T00:38:03.908Z,34.17
2019-05-02T00:40:35.240Z,33.67
2019-05-02T00:43:06.608Z,33.77
2019-05-02T00:45:38.020Z,32.00
2019-05-02T00:48:14.844Z,33.63
2019-05-02T00:50:50.650Z,33.37
2019-05-02T00:53:20.928Z,32.50
2019-05-02T00:55:52.310Z,33.53
2019-05-02T00:58:27.351Z,33.03
2019-05-02T01:01:24.292Z,32.23
2019-05-02T01:03:58.175Z,36.13
2019-05-02T01:06:29.457Z,34.67
2019-05-02T01:09:00.746Z,31.23
2019-05-02T01:11:33.217Z,33.67
2019-05-02T01:14:04.561Z,31.57
2019-05-02T01:16:35.978Z,30.50
2019-05-02T01:19:07.305Z,29.90
2019-05-02T01:21:40.033Z,34.27
2019-05-02T01:24:11.392Z,31.43
2019-05-02T01:26:49.684Z,32.80
2019-05-02T01:29:35.814Z,30.80
2019-05-02T01:32:16.762Z,32.13
2019-05-02T01:34:54.326Z,32.07
2019-05-02T01:37:51.078Z,32.27
2019-05-02T01:40:20.927Z,32.50
2019-05-02T01:42:52.268Z,32.30
2019-05-02T01:45:23.566Z,29.97
2019-05-02T01:47:54.908Z,32.00
2019-05-02T01:50:28.938Z,32.87
2019-05-02T01:53:00.197Z,33.73
2019-05-02T01:55:31.487Z,32.70
2019-05-02T01:58:02.762Z,31.93
2019-05-02T02:00:34.116Z,32.10
2019-05-02T02:03:09.136Z,33.80
2019-05-02T02:05:38.807Z,31.17
2019-05-02T02:08:10.209Z,32.07
2019-05-02T02:10:43.817Z,32.57
2019-05-02T02:13:14.505Z,34.10
2019-05-02T02:15:45.818Z,31.00
2019-05-02T02:18:22.113Z,36.93
2019-05-02T02:21:10.121Z,35.67
2019-05-02T02:24:06.400Z,36.70
2019-05-02T02:26:37.717Z,37.47
2019-05-02T02:29:09.363Z,40.27
2019-05-02T02:31:46.578Z,42.60
2019-05-02T02:34:13.714Z,38.97
2019-05-02T02:36:45.006Z,36.37
2019-05-02T02:39:17.091Z,38.20
2019-05-02T02:41:52.232Z,40.13
2019-05-02T02:44:41.912Z,36.70
2019-05-02T02:47:18.878Z,36.80
2019-05-02T02:49:46.357Z,37.07
2019-05-02T02:52:17.616Z,37.50
2019-05-02T02:54:48.999Z,37.20
2019-05-02T02:57:26.318Z,35.90
2019-05-02T02:59:53.263Z,36.07
2019-05-02T03:02:24.575Z,36.20
2019-05-02T03:04:55.914Z,37.70
2019-05-02T03:07:28.964Z,37.23
2019-05-02T03:10:06.061Z,35.77
2019-05-02T03:12:51.410Z,33.33
2019-05-02T03:15:27.912Z,38.50
2019-05-02T03:17:59.889Z,34.30
2019-05-02T03:20:39.914Z,36.17
2019-05-02T03:23:03.490Z,38.80
2019-05-02T03:25:49.683Z,36.60
2019-05-02T03:28:17.727Z,38.90
2019-05-02T03:30:40.866Z,34.17
2019-05-02T03:33:12.704Z,38.03
2019-05-02T03:35:48.935Z,35.13
2019-05-02T03:38:18.406Z,38.10
2019-05-02T03:40:49.876Z,40.77
2019-05-02T03:43:25.765Z,36.83
2019-05-02T03:45:54.228Z,40.80
2019-05-02T03:48:27.898Z,38.77
2019-05-02T03:50:58.557Z,36.70
2019-05-02T03:53:29.873Z,40.30
2019-05-02T03:56:10.620Z,42.90
2019-05-02T03:58:34.239Z,41.87
2019-05-02T04:01:05.537Z,37.30
2019-05-02T04:03:40.982Z,40.60
2019-05-02T04:06:14.082Z,39.20
2019-05-02T04:08:58.711Z,41.67
2019-05-02T04:11:25.927Z,41.47
2019-05-02T04:13:58.089Z,41.40
2019-05-02T04:16:31.030Z,44.53
2019-05-02T04:19:06.416Z,38.97
2019-05-02T04:21:38.438Z,41.50
2019-05-02T04:24:14.909Z,37.37
2019-05-02T04:26:53.629Z,40.40
2019-05-02T04:29:24.462Z,36.03
2019-05-02T04:31:52.268Z,35.80
2019-05-02T04:34:23.543Z,34.43
2019-05-02T04:37:01.299Z,36.60
2019-05-02T04:39:28.643Z,35.73
2019-05-02T04:42:05.550Z,33.70
2019-05-02T04:44:41.146Z,38.13
2019-05-02T04:47:17.357Z,41.80
2019-05-02T04:49:39.450Z,38.60
2019-05-02T04:52:12.184Z,37.77
2019-05-02T04:54:43.811Z,38.63
2019-05-02T04:57:15.141Z,38.70
2019-05-02T04:59:50.063Z,38.07
2019-05-02T05:02:21.287Z,38.13
2019-05-02T05:04:52.485Z,35.50
2019-05-02T05:07:23.795Z,35.60
2019-05-02T05:09:58.079Z,39.37
2019-05-02T05:12:32.503Z,35.60
2019-05-02T05:15:01.109Z,39.47
2019-05-02T05:17:33.883Z,41.73
2019-05-02T05:20:13.666Z,41.70
2019-05-02T05:22:44.130Z,43.53
2019-05-02T05:25:21.120Z,43.83
2019-05-02T05:27:52.645Z,40.53
2019-05-02T05:30:23.038Z,42.60
2019-05-02T05:32:54.342Z,42.50
2019-05-02T05:35:27.730Z,38.67
2019-05-02T05:37:58.685Z,43.67
2019-05-02T05:40:32.050Z,38.77
2019-05-02T05:43:12.976Z,41.30
2019-05-02T05:45:50.302Z,43.30
2019-05-02T05:48:09.082Z,40.50
2019-05-02T05:50:41.477Z,41.10
2019-05-02T05:53:17.387Z,44.30
2019-05-02T05:55:47.340Z,42.83
2019-05-02T05:58:18.936Z,43.17
2019-05-02T06:00:53.762Z,43.87
2019-05-02T06:03:23.247Z,40.80
2019-05-02T06:05:54.616Z,44.23
2019-05-02T06:08:25.908Z,46.53
2019-05-02T06:10:57.219Z,43.93
2019-05-02T06:13:28.545Z,45.40
2019-05-02T06:16:02.542Z,44.10
2019-05-02T06:18:36.414Z,44.73
2019-05-02T06:21:08.849Z,51.60
2019-05-02T06:23:41.398Z,46.33
2019-05-02T06:26:13.419Z,46.73
2019-05-02T06:28:44.969Z,45.80
2019-05-02T06:31:17.161Z,46.43
2019-05-02T06:33:48.694Z,48.73
2019-05-02T06:36:19.987Z,45.73
2019-05-02T06:38:56.152Z,44.80
2019-05-02T06:41:24.564Z,45.60
2019-05-02T06:43:55.894Z,50.23
2019-05-02T06:46:28.031Z,47.03
2019-05-02T06:49:00.329Z,46.20
2019-05-02T06:51:31.666Z,42.47
2019-05-02T06:54:02.949Z,43.07
2019-05-02T06:56:34.255Z,41.73
2019-05-02T06:59:05.621Z,49.03
2019-05-02T07:01:37.034Z,46.20
2019-05-02T07:04:08.347Z,47.07
2019-05-02T07:06:50.065Z,48.23
2019-05-02T07:09:12.961Z,45.50
2019-05-02T07:11:56.616Z,45.10
2019-05-02T07:14:18.669Z,47.73
2019-05-02T07:16:59.821Z,44.73
2019-05-02T07:19:40.400Z,47.13
2019-05-02T07:22:11.727Z,48.47
2019-05-02T07:24:42.967Z,46.40
2019-05-02T07:27:14.289Z,43.87
2019-05-02T07:29:45.599Z,49.70
2019-05-02T07:32:19.183Z,42.53
2019-05-02T07:34:49.966Z,43.93
2019-05-02T07:37:21.274Z,47.80
2019-05-02T07:39:52.578Z,48.70
2019-05-02T07:42:23.884Z,43.83
2019-05-02T07:44:55.178Z,40.50
2019-05-02T07:47:28.728Z,43.63
2019-05-02T07:49:59.527Z,34.47
2019-05-02T07:52:33.747Z,35.60
2019-05-02T07:55:06.587Z,32.30
2019-05-02T07:57:36.932Z,34.77
2019-05-02T08:00:09.759Z,33.37
2019-05-02T08:02:41.076Z,35.00
2019-05-02T08:05:15.512Z,32.70
2019-05-02T08:07:45.842Z,35.53
2019-05-02T08:10:22.182Z,35.30
2019-05-02T08:12:52.233Z,42.30
2019-05-02T08:15:24.572Z,42.80
2019-05-02T08:17:56.529Z,41.90
2019-05-02T08:20:27.840Z,46.27
2019-05-02T08:22:59.185Z,48.37
2019-05-02T08:25:30.541Z,48.47
2019-05-02T08:28:10.174Z,49.53
2019-05-02T08:30:44.454Z,53.27
2019-05-02T08:33:15.760Z,52.40
2019-05-02T08:35:47.083Z,52.07
2019-05-02T08:38:19.046Z,50.70
2019-05-02T08:40:50.508Z,52.07
2019-05-02T08:43:21.789Z,50.27
2019-05-02T08:45:53.076Z,50.37
2019-05-02T08:48:24.386Z,50.67
2019-05-02T08:50:55.736Z,45.67
2019-05-02T08:53:27.069Z,48.33
2019-05-02T08:55:58.366Z,42.63
2019-05-02T08:58:29.724Z,48.33
2019-05-02T09:01:01.057Z,47.30
2019-05-02T09:03:38.870Z,45.90
2019-05-02T09:06:06.346Z,48.80
2019-05-02T09:08:37.791Z,43.40
2019-05-02T09:11:14.233Z,45.33
2019-05-02T09:13:42.257Z,44.40
2019-05-02T09:16:13.580Z,44.70
2019-05-02T09:18:51.925Z,44.27
2019-05-02T09:21:21.958Z,44.50
2019-05-02T09:23:53.326Z,45.40
2019-05-02T09:26:35.026Z,43.67
2019-05-02T09:29:01.747Z,44.97
2019-05-02T09:31:32.008Z,44.33
2019-05-02T09:34:03.842Z,44.13
2019-05-02T09:36:38.099Z,39.30
2019-05-02T09:39:09.070Z,44.07
2019-05-02T09:41:41.908Z,43.53
2019-05-02T09:44:18.472Z,42.87
2019-05-02T09:46:47.408Z,44.23
2019-05-02T09:49:19.407Z,44.33
2019-05-02T09:51:59.310Z,41.97
2019-05-02T09:54:23.760Z,39.67
2019-05-02T09:56:55.094Z,40.07
2019-05-02T09:59:33.342Z,44.10
2019-05-02T10:02:06.936Z,44.40
2019-05-02T10:04:41.348Z,42.13
2019-05-02T10:07:12.735Z,45.13
2019-05-02T10:09:44.459Z,41.63
2019-05-02T10:12:15.790Z,42.67
2019-05-02T10:14:47.142Z,42.60
2019-05-02T10:17:18.625Z,43.27
2019-05-02T10:19:54.984Z,41.13
2019-05-02T10:22:26.365Z,43.43
2019-05-02T10:24:56.195Z,41.47
2019-05-02T10:27:27.493Z,43.43
2019-05-02T10:30:08.114Z,40.47
2019-05-02T10:32:32.458Z,42.00
2019-05-02T10:35:03.818Z,41.20
2019-05-02T10:37:38.289Z,39.17
2019-05-02T10:40:13.498Z,42.60
2019-05-02T10:42:41.998Z,42.83
2019-05-02T10:45:16.766Z,38.23
2019-05-02T10:47:46.795Z,38.57
2019-05-02T10:50:25.903Z,37.10
2019-05-02T10:52:57.233Z,37.00
2019-05-02T10:55:28.535Z,37.53
2019-05-02T10:58:01.889Z,35.80
2019-05-02T11:00:36.250Z,38.30
2019-05-02T11:03:13.600Z,38.47
2019-05-02T11:05:47.066Z,37.33
2019-05-02T11:08:18.275Z,32.67
2019-05-02T11:10:49.520Z,35.10
2019-05-02T11:13:45.650Z,36.70
2019-05-02T11:16:34.551Z,37.10
2019-05-02T11:19:15.676Z,36.57
2019-05-02T11:21:56.274Z,39.90
2019-05-02T11:24:19.953Z,38.27
2019-05-02T11:26:52.857Z,37.67
2019-05-02T11:29:24.260Z,36.47
2019-05-02T11:31:55.563Z,35.23
2019-05-02T11:34:26.878Z,36.50
2019-05-02T11:36:58.187Z,36.27
2019-05-02T11:39:40.985Z,34.70
2019-05-02T11:42:02.523Z,35.40
2019-05-02T11:44:33.828Z,36.47
2019-05-02T11:47:05.161Z,36.33
2019-05-02T11:49:36.520Z,38.80
2019-05-02T11:52:07.903Z,36.40
2019-05-02T11:54:44.069Z,34.77
2019-05-02T11:57:12.242Z,32.10
2019-05-02T11:59:43.558Z,32.40
2019-05-02T12:02:36.556Z,31.63
2019-05-02T12:05:12.382Z,33.23
2019-05-02T12:07:43.614Z,33.37
2019-05-02T12:10:14.923Z,33.20
2019-05-02T12:12:46.247Z,33.27
2019-05-02T12:15:17.526Z,30.10
2019-05-02T12:17:48.852Z,29.27
2019-05-02T12:20:20.175Z,34.73
2019-05-02T12:22:52.810Z,34.73
2019-05-02T12:25:24.240Z,30.07
2019-05-02T12:27:55.567Z,31.47
2019-05-02T12:30:28.904Z,32.50
2019-05-02T12:32:59.879Z,29.33
2019-05-02T12:35:32.218Z,29.37
2019-05-02T12:38:03.654Z,33.67
2019-05-02T12:40:34.939Z,29.40
2019-05-02T12:43:06.278Z,29.40
2019-05-02T12:45:37.565Z,26.50
2019-05-02T12:48:08.885Z,26.33
2019-05-02T12:50:41.804Z,29.23
2019-05-02T12:53:13.259Z,29.53
2019-05-02T12:55:44.564Z,30.07
2019-05-02T12:58:15.849Z,30.27
2019-05-02T13:00:47.103Z,26.43
2019-05-02T13:03:55.291Z,28.20
2019-05-02T13:06:26.861Z,26.70
2019-05-02T13:08:58.192Z,27.33
2019-05-02T13:11:45.916Z,25.30
2019-05-02T13:14:20.110Z,26.87
2019-05-02T13:16:53.533Z,30.70
2019-05-02T13:19:37.261Z,27.67
2019-05-02T13:22:17.303Z,26.77
2019-05-02T13:24:56.230Z,25.43
2019-05-02T13:27:32.223Z,27.27
2019-05-02T13:30:03.205Z,27.53
2019-05-02T13:32:47.986Z,24.40
2019-05-02T13:35:31.623Z,25.47
2019-05-02T13:38:03.883Z,23.73
2019-05-02T13:40:44.110Z,29.13
2019-05-02T13:43:15.606Z,25.83
2019-05-02T13:46:22.147Z,27.03
2019-05-02T13:48:53.632Z,28.53
2019-05-02T13:51:25.050Z,28.33
2019-05-02T13:53:59.027Z,28.20
2019-05-02T13:56:49.259Z,27.77
2019-05-02T13:59:22.497Z,27.50
2019-05-02T14:01:56.563Z,26.73
2019-05-02T14:04:27.887Z,26.43
2019-05-02T14:06:59.168Z,26.77
2019-05-02T14:09:52.699Z,24.13
2019-05-02T14:12:28.706Z,26.37
2019-05-02T14:15:00.012Z,26.53
2019-05-02T14:17:32.659Z,26.30
2019-05-02T14:20:10.762Z,27.43
2019-05-02T14:22:37.158Z,24.07
2019-05-02T14:25:09.010Z,23.37
2019-05-02T14:27:42.222Z,24.40
2019-05-02T14:30:14.037Z,27.10
2019-05-02T14:32:45.351Z,24.20
2019-05-02T14:35:42.617Z,26.40
2019-05-02T14:38:14.841Z,26.67
2019-05-02T14:41:03.282Z,25.07
2019-05-02T14:43:54.097Z,39.93
2019-05-02T14:46:35.576Z,36.10
2019-05-02T14:49:00.018Z,40.83
2019-05-02T14:51:33.094Z,40.33
2019-05-02T14:54:08.228Z,44.70
2019-05-02T14:56:48.596Z,46.60
2019-05-02T14:59:20.259Z,45.07
2019-05-02T15:01:57.916Z,46.77
2019-05-02T15:04:29.115Z,48.90
2019-05-02T15:07:02.102Z,51.37
2019-05-02T15:09:36.150Z,51.03
2019-05-02T15:12:13.931Z,51.43
2019-05-02T15:14:39.656Z,51.43
2019-05-02T15:17:12.075Z,52.17
2019-05-02T15:19:43.472Z,50.27
2019-05-02T15:22:14.751Z,52.57
2019-05-02T15:24:46.134Z,59.30
2019-05-02T15:27:17.958Z,52.87
2019-05-02T15:29:53.968Z,57.63
2019-05-02T15:32:44.952Z,58.17
2019-05-02T15:35:31.789Z,55.57
2019-05-02T15:38:06.738Z,51.40
2019-05-02T15:40:48.057Z,51.90
2019-05-02T15:43:09.927Z,54.90
2019-05-02T15:45:44.121Z,53.87
2019-05-02T15:48:25.573Z,53.53
2019-05-02T15:50:53.078Z,55.93
2019-05-02T15:53:39.025Z,56.13
2019-05-02T15:56:18.707Z,54.70
2019-05-02T15:58:42.560Z,50.57
2019-05-02T16:01:24.703Z,51.30
2019-05-02T16:03:56.793Z,55.43
2019-05-02T16:06:31.645Z,49.57
2019-05-02T16:09:02.422Z,50.13
2019-05-02T16:11:33.864Z,51.00
2019-05-02T16:14:05.280Z,47.60
2019-05-02T16:16:40.837Z,46.83
2019-05-02T16:19:14.722Z,44.90
2019-05-02T16:21:52.001Z,45.40
2019-05-02T16:24:24.095Z,48.17
2019-05-02T16:26:57.130Z,48.50
2019-05-02T16:29:29.116Z,45.57
2019-05-02T16:32:07.744Z,42.87
2019-05-02T16:34:59.750Z,31.03
2019-05-02T16:37:32.479Z,26.87
2019-05-02T16:40:04.615Z,26.30
2019-05-02T16:42:36.097Z,27.73
2019-05-02T16:45:11.751Z,31.37
2019-05-02T16:47:43.111Z,32.13
2019-05-02T16:50:14.770Z,34.30
2019-05-02T16:52:47.482Z,35.97
2019-05-02T16:55:24.827Z,35.00
2019-05-02T16:57:56.864Z,35.07
2019-05-02T17:00:26.600Z,33.77
2019-05-02T17:02:57.965Z,35.00
2019-05-02T17:05:29.270Z,36.07
2019-05-02T17:08:20.180Z,40.47
2019-05-02T17:11:05.588Z,37.83
2019-05-02T17:13:36.896Z,37.73
2019-05-02T17:16:12.967Z,36.30
2019-05-02T17:18:43.281Z,40.50
2019-05-02T17:21:14.484Z,37.57
2019-05-02T17:23:50.419Z,37.93
2019-05-02T17:26:22.846Z,37.93
2019-05-02T17:28:54.206Z,41.53
2019-05-02T17:31:25.533Z,42.27
2019-05-02T17:33:56.857Z,36.40
2019-05-02T17:36:28.986Z,40.03
2019-05-02T17:39:06.326Z,36.57
2019-05-02T17:41:37.010Z,38.27
2019-05-02T17:44:07.474Z,36.87
2019-05-02T17:46:39.304Z,34.67
2019-05-02T17:49:11.932Z,33.53
2019-05-02T17:52:06.055Z,36.60
2019-05-02T17:54:38.291Z,33.63
2019-05-02T17:57:11.742Z,31.70
2019-05-02T17:59:42.841Z,32.93
2019-05-02T18:02:15.851Z,32.43
2019-05-02T18:04:52.176Z,32.00
2019-05-02T18:07:25.045Z,35.77
2019-05-02T18:09:53.249Z,35.40
2019-05-02T18:12:24.567Z,32.80
2019-05-02T18:14:58.937Z,30.97
2019-05-02T18:17:29.182Z,34.77
2019-05-02T18:20:02.235Z,30.43
2019-05-02T18:22:34.816Z,30.40
2019-05-02T18:25:06.831Z,32.73
2019-05-02T18:27:38.212Z,31.47
2019-05-02T18:30:12.776Z,27.00
2019-05-02T18:32:44.218Z,29.90
2019-05-02T18:35:15.624Z,32.73
2019-05-02T18:37:47.049Z,33.83
2019-05-02T18:40:20.193Z,34.83
2019-05-02T18:42:52.049Z,29.37
2019-05-02T18:45:28.564Z,30.63
2019-05-02T18:48:02.132Z,30.73
2019-05-02T18:50:41.861Z,32.70
2019-05-02T18:53:11.277Z,29.57
2019-05-02T18:55:42.769Z,32.40
2019-05-02T18:58:14.105Z,32.83
2019-05-02T19:00:45.446Z,31.73
2019-05-02T19:03:17.736Z,32.03
2019-05-02T19:05:51.579Z,30.63
2019-05-02T19:08:29.046Z,29.83
2019-05-02T19:11:04.709Z,33.40
2019-05-02T19:13:29.913Z,33.40
2019-05-02T19:16:02.056Z,32.50
2019-05-02T19:18:37.014Z,35.37
2019-05-02T19:21:08.871Z,34.00
2019-05-02T19:23:42.287Z,35.57
2019-05-02T19:26:15.375Z,40.17
2019-05-02T19:29:03.616Z,38.53
2019-05-02T19:31:46.653Z,36.70
2019-05-02T19:34:22.947Z,38.50
2019-05-02T19:36:52.834Z,38.47
2019-05-02T19:39:25.835Z,41.23
2019-05-02T19:41:57.170Z,39.80
2019-05-02T19:44:29.838Z,41.27
2019-05-02T19:47:02.535Z,40.20
2019-05-02T19:49:34.021Z,46.70
2019-05-02T19:52:05.524Z,47.30
2019-05-02T19:54:39.263Z,45.93
2019-05-02T19:57:11.697Z,46.93
2019-05-02T19:59:43.188Z,47.03
2019-05-02T20:02:14.447Z,48.50
2019-05-02T20:04:45.807Z,45.17
2019-05-02T20:07:17.207Z,48.70
2019-05-02T20:09:48.536Z,45.43
2019-05-02T20:12:21.922Z,47.33
2019-05-02T20:14:53.463Z,45.10
2019-05-02T20:17:24.827Z,44.90
2019-05-02T20:20:05.477Z,45.13
2019-05-02T20:22:31.658Z,38.33
2019-05-02T20:25:03.820Z,36.97
2019-05-02T20:27:35.321Z,36.00
2019-05-02T20:30:07.605Z,34.93
2019-05-02T20:32:38.901Z,29.17
2019-05-02T20:35:11.939Z,26.60
2019-05-02T20:37:43.389Z,23.87
2019-05-02T20:40:29.130Z,21.63
2019-05-02T20:43:02.423Z,19.97
2019-05-02T20:45:33.599Z,21.03
2019-05-02T20:48:05.381Z,19.77
2019-05-02T20:50:36.845Z,21.97
2019-05-02T20:53:08.321Z,19.67
2019-05-02T20:55:41.569Z,17.20
2019-05-02T20:58:12.764Z,20.13
2019-05-02T21:00:46.446Z,19.27
2019-05-02T21:03:17.939Z,16.57
2019-05-02T21:06:12.222Z,16.03
2019-05-02T21:09:02.050Z,15.17
2019-05-02T21:11:33.193Z,13.53
2019-05-02T21:14:05.070Z,14.30
2019-05-02T21:16:36.411Z,13.40
2019-05-02T21:19:07.822Z,10.50
2019-05-02T21:21:40.750Z,12.27
2019-05-02T21:24:12.930Z,8.67
2019-05-02T21:26:44.290Z,6.70
2019-05-02T21:29:15.646Z,8.03
2019-05-02T21:31:47.079Z,6.57
2019-05-02T21:34:18.453Z,5.20
2019-05-02T21:36:51.740Z,6.87
2019-05-02T21:39:22.876Z,7.03
2019-05-02T21:41:54.302Z,5.60
2019-05-02T21:44:25.693Z,5.87
2019-05-02T21:46:57.032Z,4.77
2019-05-02T21:49:43.013Z,5.23
2019-05-02T21:52:31.954Z,5.20
2019-05-02T21:55:13.574Z,8.03
2019-05-02T21:57:44.950Z,4.27
2019-05-02T22:00:47.875Z,6.80
2019-05-02T22:03:19.450Z,5.17
2019-05-02T22:05:50.856Z,7.60
2019-05-02T22:08:22.271Z,7.53
2019-05-02T22:10:53.577Z,4.33
2019-05-02T22:13:24.865Z,3.60
2019-05-02T22:15:56.301Z,6.90
2019-05-02T22:18:27.669Z,6.57
2019-05-02T22:20:58.944Z,3.83
2019-05-02T22:23:31.807Z,5.27
2019-05-02T22:26:04.312Z,4.87
2019-05-02T22:28:35.654Z,7.43
2019-05-02T22:31:06.923Z,4.70
2019-05-02T22:33:38.240Z,4.17
2019-05-02T22:36:09.557Z,4.23
2019-05-02T22:38:49.384Z,5.73
2019-05-02T22:41:22.115Z,6.03
2019-05-02T22:43:53.648Z,4.77
2019-05-02T22:46:44.189Z,4.10
2019-05-02T22:49:16.282Z,4.13
2019-05-02T22:51:47.638Z,5.47
2019-05-02T22:54:27.893Z,4.90
2019-05-02T22:56:52.271Z,5.43
2019-05-02T22:59:24.005Z,5.83
2019-05-02T23:01:55.447Z,4.23
2019-05-02T23:04:26.774Z,4.57
2019-05-02T23:06:58.176Z,4.37
2019-05-02T23:09:29.460Z,4.40
2019-05-02T23:12:02.928Z,5.13
2019-05-02T23:14:34.142Z,6.57
2019-05-02T23:17:05.522Z,4.93
2019-05-02T23:19:36.822Z,5.37
2019-05-02T23:22:09.165Z,5.13
2019-05-02T23:24:59.420Z,4.93
2019-05-02T23:27:42.261Z,5.07
2019-05-02T23:30:17.190Z,5.87
2019-05-02T23:32:48.573Z,5.17
2019-05-02T23:35:19.981Z,5.87
2019-05-02T23:37:52.952Z,5.53
2019-05-02T23:40:24.523Z,5.03
2019-05-02T23:42:55.814Z,6.23
2019-05-02T23:45:27.126Z,5.87
2019-05-02T23:47:58.440Z,6.70
2019-05-02T23:50:29.765Z,6.70
2019-05-02T23:53:02.286Z,4.97
2019-05-02T23:55:33.765Z,5.93
2019-05-02T23:58:05.133Z,6.00
